sensor_id;sensor_type;location;lat;lon;timestamp;temperature;humidity
20526;DHT22;10421;49.142;9.232;2023-04-21T00:01:30;10.80;99.70
20526;DHT22;10421;49.142;9.232;2023-04-21T00:03:58;10.80;99.60
20526;DHT22;10421;49.142;9.232;2023-04-21T00:06:25;10.80;99.60
20526;DHT22;10421;49.142;9.232;2023-04-21T00:08:52;10.80;99.60
20526;DHT22;10421;49.142;9.232;2023-04-21T00:11:19;10.80;99.50
20526;DHT22;10421;49.142;9.232;2023-04-21T00:13:48;10.70;99.40
20526;DHT22;10421;49.142;9.232;2023-04-21T00:16:14;10.70;99.40
20526;DHT22;10421;49.142;9.232;2023-04-21T00:18:41;10.60;99.40
20526;DHT22;10421;49.142;9.232;2023-04-21T00:21:08;10.60;99.40
20526;DHT22;10421;49.142;9.232;2023-04-21T00:23:34;10.60;99.40
20526;DHT22;10421;49.142;9.232;2023-04-21T00:26:01;10.60;99.50
20526;DHT22;10421;49.142;9.232;2023-04-21T00:28:28;10.50;99.50
20526;DHT22;10421;49.142;9.232;2023-04-21T00:30:56;10.50;99.50
20526;DHT22;10421;49.142;9.232;2023-04-21T00:33:23;10.50;99.50
20526;DHT22;10421;49.142;9.232;2023-04-21T00:35:50;10.50;99.50
20526;DHT22;10421;49.142;9.232;2023-04-21T00:38:18;10.50;99.50
20526;DHT22;10421;49.142;9.232;2023-04-21T00:40:45;10.50;99.60
20526;DHT22;10421;49.142;9.232;2023-04-21T00:43:12;10.40;99.60
20526;DHT22;10421;49.142;9.232;2023-04-21T00:45:38;10.40;99.90
20526;DHT22;10421;49.142;9.232;2023-04-21T00:48:06;10.40;99.70
20526;DHT22;10421;49.142;9.232;2023-04-21T00:50:33;10.40;99.70
20526;DHT22;10421;49.142;9.232;2023-04-21T00:53:00;10.40;99.70
20526;DHT22;10421;49.142;9.232;2023-04-21T00:55:27;10.40;99.60
20526;DHT22;10421;49.142;9.232;2023-04-21T00:57:54;10.40;99.60
20526;DHT22;10421;49.142;9.232;2023-04-21T01:00:21;10.30;99.60
20526;DHT22;10421;49.142;9.232;2023-04-21T01:02:48;10.30;99.50
20526;DHT22;10421;49.142;9.232;2023-04-21T01:05:16;10.30;99.50
20526;DHT22;10421;49.142;9.232;2023-04-21T01:07:43;10.30;99.60
20526;DHT22;10421;49.142;9.232;2023-04-21T01:10:10;10.30;99.60
20526;DHT22;10421;49.142;9.232;2023-04-21T01:12:44;10.20;99.50
20526;DHT22;10421;49.142;9.232;2023-04-21T01:15:11;10.30;99.50
20526;DHT22;10421;49.142;9.232;2023-04-21T01:17:38;10.30;99.40
20526;DHT22;10421;49.142;9.232;2023-04-21T01:20:08;10.20;99.30
20526;DHT22;10421;49.142;9.232;2023-04-21T01:22:38;10.20;99.30
20526;DHT22;10421;49.142;9.232;2023-04-21T01:25:07;10.20;99.40
20526;DHT22;10421;49.142;9.232;2023-04-21T01:27:34;10.20;99.40
20526;DHT22;10421;49.142;9.232;2023-04-21T01:30:01;10.20;99.50
20526;DHT22;10421;49.142;9.232;2023-04-21T01:32:29;10.20;99.50
20526;DHT22;10421;49.142;9.232;2023-04-21T01:34:56;10.20;99.50
20526;DHT22;10421;49.142;9.232;2023-04-21T01:37:25;10.10;99.50
20526;DHT22;10421;49.142;9.232;2023-04-21T01:39:55;10.10;99.40
20526;DHT22;10421;49.142;9.232;2023-04-21T01:42:24;10.10;99.40
20526;DHT22;10421;49.142;9.232;2023-04-21T01:44:51;10.10;99.50
20526;DHT22;10421;49.142;9.232;2023-04-21T01:47:19;10.10;99.50
20526;DHT22;10421;49.142;9.232;2023-04-21T01:49:46;10.10;99.50
20526;DHT22;10421;49.142;9.232;2023-04-21T01:52:13;10.10;99.50
20526;DHT22;10421;49.142;9.232;2023-04-21T01:54:39;10.00;99.50
20526;DHT22;10421;49.142;9.232;2023-04-21T01:57:07;10.00;99.50
20526;DHT22;10421;49.142;9.232;2023-04-21T01:59:34;10.00;99.90
20526;DHT22;10421;49.142;9.232;2023-04-21T02:02:01;10.00;99.60
20526;DHT22;10421;49.142;9.232;2023-04-21T02:04:27;10.00;99.60
20526;DHT22;10421;49.142;9.232;2023-04-21T02:06:54;10.00;99.50
20526;DHT22;10421;49.142;9.232;2023-04-21T02:09:21;10.00;99.50
20526;DHT22;10421;49.142;9.232;2023-04-21T02:11:47;10.00;99.50
20526;DHT22;10421;49.142;9.232;2023-04-21T02:14:15;9.90;99.90
20526;DHT22;10421;49.142;9.232;2023-04-21T02:16:42;9.90;99.90
20526;DHT22;10421;49.142;9.232;2023-04-21T02:19:09;9.90;99.90
20526;DHT22;10421;49.142;9.232;2023-04-21T02:21:36;9.90;99.90
20526;DHT22;10421;49.142;9.232;2023-04-21T02:24:03;9.90;99.90
20526;DHT22;10421;49.142;9.232;2023-04-21T02:26:29;9.90;99.90
20526;DHT22;10421;49.142;9.232;2023-04-21T02:28:56;9.80;99.90
20526;DHT22;10421;49.142;9.232;2023-04-21T02:31:24;9.80;99.90
20526;DHT22;10421;49.142;9.232;2023-04-21T02:33:51;9.80;99.90
20526;DHT22;10421;49.142;9.232;2023-04-21T02:36:19;9.80;99.90
20526;DHT22;10421;49.142;9.232;2023-04-21T02:38:45;9.80;99.90
20526;DHT22;10421;49.142;9.232;2023-04-21T02:41:12;9.80;99.90
20526;DHT22;10421;49.142;9.232;2023-04-21T02:43:39;9.80;99.90
20526;DHT22;10421;49.142;9.232;2023-04-21T02:46:06;9.80;99.90
20526;DHT22;10421;49.142;9.232;2023-04-21T02:48:34;9.80;99.90
20526;DHT22;10421;49.142;9.232;2023-04-21T02:51:01;9.70;99.90
20526;DHT22;10421;49.142;9.232;2023-04-21T02:53:28;9.80;99.90
20526;DHT22;10421;49.142;9.232;2023-04-21T02:55:55;9.70;99.80
20526;DHT22;10421;49.142;9.232;2023-04-21T02:58:22;9.70;99.90
20526;DHT22;10421;49.142;9.232;2023-04-21T03:00:49;9.70;99.90
20526;DHT22;10421;49.142;9.232;2023-04-21T03:03:15;9.60;99.90
20526;DHT22;10421;49.142;9.232;2023-04-21T03:05:43;9.60;99.90
20526;DHT22;10421;49.142;9.232;2023-04-21T03:08:10;9.60;99.90
20526;DHT22;10421;49.142;9.232;2023-04-21T03:10:37;9.60;99.90
20526;DHT22;10421;49.142;9.232;2023-04-21T03:13:04;9.60;99.90
20526;DHT22;10421;49.142;9.232;2023-04-21T03:15:30;9.60;99.90
20526;DHT22;10421;49.142;9.232;2023-04-21T03:17:57;9.60;99.90
20526;DHT22;10421;49.142;9.232;2023-04-21T03:20:24;9.60;99.90
20526;DHT22;10421;49.142;9.232;2023-04-21T03:22:53;9.60;99.90
20526;DHT22;10421;49.142;9.232;2023-04-21T03:25:20;9.50;99.90
20526;DHT22;10421;49.142;9.232;2023-04-21T03:27:47;9.50;99.90
20526;DHT22;10421;49.142;9.232;2023-04-21T03:30:14;9.50;99.90
20526;DHT22;10421;49.142;9.232;2023-04-21T03:32:40;9.50;99.90
20526;DHT22;10421;49.142;9.232;2023-04-21T03:35:07;9.50;99.90
20526;DHT22;10421;49.142;9.232;2023-04-21T03:37:34;9.50;99.90
20526;DHT22;10421;49.142;9.232;2023-04-21T03:40:02;9.50;99.90
20526;DHT22;10421;49.142;9.232;2023-04-21T03:42:30;9.50;99.90
20526;DHT22;10421;49.142;9.232;2023-04-21T03:45:00;9.50;99.90
20526;DHT22;10421;49.142;9.232;2023-04-21T03:47:27;9.40;99.90
20526;DHT22;10421;49.142;9.232;2023-04-21T03:49:54;9.40;99.90
20526;DHT22;10421;49.142;9.232;2023-04-21T03:52:21;9.40;99.90
20526;DHT22;10421;49.142;9.232;2023-04-21T03:54:48;9.40;99.90
20526;DHT22;10421;49.142;9.232;2023-04-21T03:57:16;9.40;99.90
20526;DHT22;10421;49.142;9.232;2023-04-21T03:59:43;9.40;99.90
20526;DHT22;10421;49.142;9.232;2023-04-21T04:02:09;9.40;99.90
20526;DHT22;10421;49.142;9.232;2023-04-21T04:04:36;9.40;99.90
20526;DHT22;10421;49.142;9.232;2023-04-21T04:07:03;9.40;99.90
20526;DHT22;10421;49.142;9.232;2023-04-21T04:09:31;9.40;99.90
20526;DHT22;10421;49.142;9.232;2023-04-21T04:11:58;9.30;99.90
20526;DHT22;10421;49.142;9.232;2023-04-21T04:14:29;9.40;99.90
20526;DHT22;10421;49.142;9.232;2023-04-21T04:16:57;9.30;99.90
20526;DHT22;10421;49.142;9.232;2023-04-21T04:19:29;9.40;99.90
20526;DHT22;10421;49.142;9.232;2023-04-21T04:21:57;9.40;99.90
20526;DHT22;10421;49.142;9.232;2023-04-21T04:24:24;9.30;99.90
20526;DHT22;10421;49.142;9.232;2023-04-21T04:26:51;9.30;99.90
20526;DHT22;10421;49.142;9.232;2023-04-21T04:29:20;9.40;99.90
20526;DHT22;10421;49.142;9.232;2023-04-21T04:31:49;9.30;99.90
20526;DHT22;10421;49.142;9.232;2023-04-21T04:34:15;9.30;99.90
20526;DHT22;10421;49.142;9.232;2023-04-21T04:36:43;9.20;99.90
20526;DHT22;10421;49.142;9.232;2023-04-21T04:39:09;9.10;99.90
20526;DHT22;10421;49.142;9.232;2023-04-21T04:41:37;9.00;99.90
20526;DHT22;10421;49.142;9.232;2023-04-21T04:44:04;8.90;99.90
20526;DHT22;10421;49.142;9.232;2023-04-21T04:46:31;8.80;99.90
20526;DHT22;10421;49.142;9.232;2023-04-21T04:48:59;8.70;99.90
20526;DHT22;10421;49.142;9.232;2023-04-21T04:51:26;8.70;99.90
20526;DHT22;10421;49.142;9.232;2023-04-21T04:53:53;8.70;99.90
20526;DHT22;10421;49.142;9.232;2023-04-21T04:56:19;8.70;99.90
20526;DHT22;10421;49.142;9.232;2023-04-21T04:58:46;8.60;99.90
20526;DHT22;10421;49.142;9.232;2023-04-21T05:01:14;8.70;99.90
20526;DHT22;10421;49.142;9.232;2023-04-21T05:03:41;8.60;99.90
20526;DHT22;10421;49.142;9.232;2023-04-21T05:06:09;8.60;99.90
20526;DHT22;10421;49.142;9.232;2023-04-21T05:08:38;8.60;99.90
20526;DHT22;10421;49.142;9.232;2023-04-21T05:11:06;8.70;99.90
20526;DHT22;10421;49.142;9.232;2023-04-21T05:13:32;8.70;99.90
20526;DHT22;10421;49.142;9.232;2023-04-21T05:16:00;8.70;99.90
20526;DHT22;10421;49.142;9.232;2023-04-21T05:18:27;8.70;99.90
20526;DHT22;10421;49.142;9.232;2023-04-21T05:20:53;8.70;99.90
20526;DHT22;10421;49.142;9.232;2023-04-21T05:23:22;8.70;99.90
20526;DHT22;10421;49.142;9.232;2023-04-21T05:25:48;8.70;99.90
20526;DHT22;10421;49.142;9.232;2023-04-21T05:28:15;8.70;99.90
20526;DHT22;10421;49.142;9.232;2023-04-21T05:30:42;8.60;99.90
20526;DHT22;10421;49.142;9.232;2023-04-21T05:33:09;8.50;99.90
20526;DHT22;10421;49.142;9.232;2023-04-21T05:35:35;8.50;99.90
20526;DHT22;10421;49.142;9.232;2023-04-21T05:38:02;8.40;99.90
20526;DHT22;10421;49.142;9.232;2023-04-21T05:40:30;8.40;99.90
20526;DHT22;10421;49.142;9.232;2023-04-21T05:42:57;8.30;99.90
20526;DHT22;10421;49.142;9.232;2023-04-21T05:45:24;8.30;99.90
20526;DHT22;10421;49.142;9.232;2023-04-21T05:47:50;8.30;99.90
20526;DHT22;10421;49.142;9.232;2023-04-21T05:50:17;8.30;99.90
20526;DHT22;10421;49.142;9.232;2023-04-21T05:52:44;8.30;99.90
20526;DHT22;10421;49.142;9.232;2023-04-21T05:55:10;8.30;99.90
20526;DHT22;10421;49.142;9.232;2023-04-21T05:57:38;8.30;99.90
20526;DHT22;10421;49.142;9.232;2023-04-21T06:00:07;8.30;99.90
20526;DHT22;10421;49.142;9.232;2023-04-21T06:02:33;8.40;99.90
20526;DHT22;10421;49.142;9.232;2023-04-21T06:05:00;8.40;99.90
20526;DHT22;10421;49.142;9.232;2023-04-21T06:07:27;8.50;99.90
20526;DHT22;10421;49.142;9.232;2023-04-21T06:09:54;8.50;99.90
20526;DHT22;10421;49.142;9.232;2023-04-21T06:12:22;8.70;99.90
20526;DHT22;10421;49.142;9.232;2023-04-21T06:14:50;8.70;99.90
20526;DHT22;10421;49.142;9.232;2023-04-21T06:17:17;8.80;99.90
20526;DHT22;10421;49.142;9.232;2023-04-21T06:19:43;8.80;99.90
20526;DHT22;10421;49.142;9.232;2023-04-21T06:22:10;8.80;99.90
20526;DHT22;10421;49.142;9.232;2023-04-21T06:24:37;8.90;99.90
20526;DHT22;10421;49.142;9.232;2023-04-21T06:27:09;9.00;99.90
20526;DHT22;10421;49.142;9.232;2023-04-21T06:29:36;9.10;99.90
20526;DHT22;10421;49.142;9.232;2023-04-21T06:32:05;9.10;99.90
20526;DHT22;10421;49.142;9.232;2023-04-21T06:34:32;9.10;99.90
20526;DHT22;10421;49.142;9.232;2023-04-21T06:36:58;9.20;99.90
20526;DHT22;10421;49.142;9.232;2023-04-21T06:39:25;9.30;99.90
20526;DHT22;10421;49.142;9.232;2023-04-21T06:41:52;9.30;99.90
20526;DHT22;10421;49.142;9.232;2023-04-21T06:44:19;9.40;99.90
20526;DHT22;10421;49.142;9.232;2023-04-21T06:46:46;9.50;99.90
20526;DHT22;10421;49.142;9.232;2023-04-21T06:49:14;9.50;99.90
20526;DHT22;10421;49.142;9.232;2023-04-21T06:51:41;9.60;99.90
20526;DHT22;10421;49.142;9.232;2023-04-21T06:54:07;9.60;99.90
20526;DHT22;10421;49.142;9.232;2023-04-21T06:56:34;9.60;99.90
20526;DHT22;10421;49.142;9.232;2023-04-21T06:59:01;9.50;99.90
20526;DHT22;10421;49.142;9.232;2023-04-21T07:01:27;9.50;99.90
20526;DHT22;10421;49.142;9.232;2023-04-21T07:03:54;9.60;99.90
20526;DHT22;10421;49.142;9.232;2023-04-21T07:06:22;9.70;99.90
20526;DHT22;10421;49.142;9.232;2023-04-21T07:08:49;9.60;99.90
20526;DHT22;10421;49.142;9.232;2023-04-21T07:11:16;9.60;99.90
20526;DHT22;10421;49.142;9.232;2023-04-21T07:13:42;9.70;99.90
20526;DHT22;10421;49.142;9.232;2023-04-21T07:16:09;9.80;99.90
20526;DHT22;10421;49.142;9.232;2023-04-21T07:18:38;9.90;99.90
20526;DHT22;10421;49.142;9.232;2023-04-21T07:21:05;10.10;99.90
20526;DHT22;10421;49.142;9.232;2023-04-21T07:23:33;10.30;99.90
20526;DHT22;10421;49.142;9.232;2023-04-21T07:25:59;10.50;99.90
20526;DHT22;10421;49.142;9.232;2023-04-21T07:28:26;10.60;99.90
20526;DHT22;10421;49.142;9.232;2023-04-21T07:30:53;10.60;99.90
20526;DHT22;10421;49.142;9.232;2023-04-21T07:33:21;10.70;99.90
20526;DHT22;10421;49.142;9.232;2023-04-21T07:35:47;10.70;99.90
20526;DHT22;10421;49.142;9.232;2023-04-21T07:38:14;10.80;99.90
20526;DHT22;10421;49.142;9.232;2023-04-21T07:40:42;10.90;99.90
20526;DHT22;10421;49.142;9.232;2023-04-21T07:43:09;11.00;99.90
20526;DHT22;10421;49.142;9.232;2023-04-21T07:45:36;11.10;99.90
20526;DHT22;10421;49.142;9.232;2023-04-21T07:48:03;11.20;99.90
20526;DHT22;10421;49.142;9.232;2023-04-21T07:50:30;11.30;99.90
20526;DHT22;10421;49.142;9.232;2023-04-21T07:52:57;11.30;99.90
20526;DHT22;10421;49.142;9.232;2023-04-21T07:55:24;11.40;99.90
20526;DHT22;10421;49.142;9.232;2023-04-21T07:57:52;11.50;99.90
20526;DHT22;10421;49.142;9.232;2023-04-21T08:00:19;11.60;99.90
20526;DHT22;10421;49.142;9.232;2023-04-21T08:02:46;11.70;99.90
20526;DHT22;10421;49.142;9.232;2023-04-21T08:05:12;11.80;99.90
20526;DHT22;10421;49.142;9.232;2023-04-21T08:07:39;11.80;99.90
20526;DHT22;10421;49.142;9.232;2023-04-21T08:10:08;11.90;99.90
20526;DHT22;10421;49.142;9.232;2023-04-21T08:12:35;11.90;99.90
20526;DHT22;10421;49.142;9.232;2023-04-21T08:15:03;12.00;99.90
20526;DHT22;10421;49.142;9.232;2023-04-21T08:17:32;12.00;99.90
20526;DHT22;10421;49.142;9.232;2023-04-21T08:20:00;12.10;99.90
20526;DHT22;10421;49.142;9.232;2023-04-21T08:22:26;12.20;99.90
20526;DHT22;10421;49.142;9.232;2023-04-21T08:24:53;12.30;99.70
20526;DHT22;10421;49.142;9.232;2023-04-21T08:27:20;12.30;99.60
20526;DHT22;10421;49.142;9.232;2023-04-21T08:29:49;12.40;99.50
20526;DHT22;10421;49.142;9.232;2023-04-21T08:32:17;12.50;99.40
20526;DHT22;10421;49.142;9.232;2023-04-21T08:34:47;12.60;99.30
20526;DHT22;10421;49.142;9.232;2023-04-21T08:37:16;12.70;99.30
20526;DHT22;10421;49.142;9.232;2023-04-21T08:39:43;12.90;99.30
20526;DHT22;10421;49.142;9.232;2023-04-21T08:42:10;13.10;99.40
20526;DHT22;10421;49.142;9.232;2023-04-21T08:44:38;13.20;99.30
20526;DHT22;10421;49.142;9.232;2023-04-21T08:47:09;13.40;99.20
20526;DHT22;10421;49.142;9.232;2023-04-21T08:49:37;13.60;98.90
20526;DHT22;10421;49.142;9.232;2023-04-21T08:52:04;13.80;98.60
20526;DHT22;10421;49.142;9.232;2023-04-21T08:54:31;14.00;98.40
20526;DHT22;10421;49.142;9.232;2023-04-21T08:56:58;14.20;98.40
20526;DHT22;10421;49.142;9.232;2023-04-21T08:59:27;14.30;98.30
20526;DHT22;10421;49.142;9.232;2023-04-21T09:02:07;14.40;98.20
20526;DHT22;10421;49.142;9.232;2023-04-21T09:04:39;14.60;98.20
20526;DHT22;10421;49.142;9.232;2023-04-21T09:07:06;14.80;98.10
20526;DHT22;10421;49.142;9.232;2023-04-21T09:09:36;14.80;98.00
20526;DHT22;10421;49.142;9.232;2023-04-21T09:12:16;14.90;97.80
20526;DHT22;10421;49.142;9.232;2023-04-21T09:14:43;15.00;97.80
20526;DHT22;10421;49.142;9.232;2023-04-21T09:17:10;15.10;97.60
20526;DHT22;10421;49.142;9.232;2023-04-21T09:19:38;15.20;97.60
20526;DHT22;10421;49.142;9.232;2023-04-21T09:22:05;15.30;97.60
20526;DHT22;10421;49.142;9.232;2023-04-21T09:24:32;15.40;97.30
20526;DHT22;10421;49.142;9.232;2023-04-21T09:27:01;15.50;97.10
20526;DHT22;10421;49.142;9.232;2023-04-21T09:29:28;15.70;97.00
20526;DHT22;10421;49.142;9.232;2023-04-21T09:31:55;15.80;97.00
20526;DHT22;10421;49.142;9.232;2023-04-21T09:34:23;16.10;96.90
20526;DHT22;10421;49.142;9.232;2023-04-21T09:37:00;16.30;96.60
20526;DHT22;10421;49.142;9.232;2023-04-21T09:39:28;16.50;96.30
20526;DHT22;10421;49.142;9.232;2023-04-21T09:41:55;16.70;96.00
20526;DHT22;10421;49.142;9.232;2023-04-21T09:44:23;17.00;95.70
20526;DHT22;10421;49.142;9.232;2023-04-21T09:46:50;17.20;95.30
20526;DHT22;10421;49.142;9.232;2023-04-21T09:49:17;17.30;94.90
20526;DHT22;10421;49.142;9.232;2023-04-21T09:51:44;17.40;94.30
20526;DHT22;10421;49.142;9.232;2023-04-21T09:54:15;17.60;94.00
20526;DHT22;10421;49.142;9.232;2023-04-21T09:56:43;17.70;93.70
20526;DHT22;10421;49.142;9.232;2023-04-21T09:59:18;17.90;93.60
20526;DHT22;10421;49.142;9.232;2023-04-21T10:01:47;18.00;93.20
20526;DHT22;10421;49.142;9.232;2023-04-21T10:04:16;18.00;92.80
20526;DHT22;10421;49.142;9.232;2023-04-21T10:06:45;18.00;92.30
20526;DHT22;10421;49.142;9.232;2023-04-21T10:09:15;18.10;92.50
20526;DHT22;10421;49.142;9.232;2023-04-21T10:11:43;18.20;92.80
20526;DHT22;10421;49.142;9.232;2023-04-21T10:14:10;18.30;92.70
20526;DHT22;10421;49.142;9.232;2023-04-21T10:16:37;18.40;92.40
20526;DHT22;10421;49.142;9.232;2023-04-21T10:19:22;18.60;92.30
20526;DHT22;10421;49.142;9.232;2023-04-21T10:21:49;18.80;92.00
20526;DHT22;10421;49.142;9.232;2023-04-21T10:24:17;18.80;91.40
20526;DHT22;10421;49.142;9.232;2023-04-21T10:26:44;18.90;91.30
20526;DHT22;10421;49.142;9.232;2023-04-21T10:29:10;19.00;91.00
20526;DHT22;10421;49.142;9.232;2023-04-21T10:31:49;19.10;90.90
20526;DHT22;10421;49.142;9.232;2023-04-21T10:34:20;19.30;90.90
20526;DHT22;10421;49.142;9.232;2023-04-21T10:37:09;19.50;90.70
20526;DHT22;10421;49.142;9.232;2023-04-21T10:39:44;19.60;89.60
20526;DHT22;10421;49.142;9.232;2023-04-21T10:42:36;19.70;89.80
20526;DHT22;10421;49.142;9.232;2023-04-21T10:45:08;19.80;90.20
20526;DHT22;10421;49.142;9.232;2023-04-21T10:47:40;20.00;89.70
20526;DHT22;10421;49.142;9.232;2023-04-21T10:50:14;20.10;89.30
20526;DHT22;10421;49.142;9.232;2023-04-21T10:52:46;20.30;87.90
20526;DHT22;10421;49.142;9.232;2023-04-21T10:55:14;20.40;87.40
20526;DHT22;10421;49.142;9.232;2023-04-21T10:57:43;20.50;87.00
20526;DHT22;10421;49.142;9.232;2023-04-21T11:00:14;20.60;86.60
20526;DHT22;10421;49.142;9.232;2023-04-21T11:02:42;20.50;86.30
20526;DHT22;10421;49.142;9.232;2023-04-21T11:05:09;20.40;84.90
20526;DHT22;10421;49.142;9.232;2023-04-21T11:07:36;20.30;85.30
20526;DHT22;10421;49.142;9.232;2023-04-21T11:10:05;20.20;86.10
20526;DHT22;10421;49.142;9.232;2023-04-21T11:12:36;20.20;86.80
20526;DHT22;10421;49.142;9.232;2023-04-21T11:15:05;20.30;87.20
20526;DHT22;10421;49.142;9.232;2023-04-21T11:17:33;20.40;87.80
20526;DHT22;10421;49.142;9.232;2023-04-21T11:20:04;20.50;87.80
20526;DHT22;10421;49.142;9.232;2023-04-21T11:22:32;20.50;86.80
20526;DHT22;10421;49.142;9.232;2023-04-21T11:24:59;20.60;86.60
20526;DHT22;10421;49.142;9.232;2023-04-21T11:27:28;20.70;86.10
20526;DHT22;10421;49.142;9.232;2023-04-21T11:29:57;20.70;85.10
20526;DHT22;10421;49.142;9.232;2023-04-21T11:32:24;20.70;84.60
20526;DHT22;10421;49.142;9.232;2023-04-21T11:34:51;20.60;84.60
20526;DHT22;10421;49.142;9.232;2023-04-21T11:37:22;20.50;84.80
20526;DHT22;10421;49.142;9.232;2023-04-21T11:39:55;20.50;84.60
20526;DHT22;10421;49.142;9.232;2023-04-21T11:42:22;20.50;84.80
20526;DHT22;10421;49.142;9.232;2023-04-21T11:44:49;20.40;84.70
20526;DHT22;10421;49.142;9.232;2023-04-21T11:47:18;20.40;84.30
20526;DHT22;10421;49.142;9.232;2023-04-21T11:49:47;20.40;84.00
20526;DHT22;10421;49.142;9.232;2023-04-21T11:52:24;20.40;83.10
20526;DHT22;10421;49.142;9.232;2023-04-21T11:54:54;20.40;83.20
20526;DHT22;10421;49.142;9.232;2023-04-21T11:57:22;20.40;83.20
20526;DHT22;10421;49.142;9.232;2023-04-21T11:59:50;20.30;82.70
20526;DHT22;10421;49.142;9.232;2023-04-21T12:02:23;20.30;83.20
20526;DHT22;10421;49.142;9.232;2023-04-21T12:05:02;20.30;83.50
20526;DHT22;10421;49.142;9.232;2023-04-21T12:07:30;20.40;82.80
20526;DHT22;10421;49.142;9.232;2023-04-21T12:09:58;20.40;82.70
20526;DHT22;10421;49.142;9.232;2023-04-21T12:12:25;20.50;82.90
20526;DHT22;10421;49.142;9.232;2023-04-21T12:14:52;20.60;83.00
20526;DHT22;10421;49.142;9.232;2023-04-21T12:17:20;20.70;82.40
20526;DHT22;10421;49.142;9.232;2023-04-21T12:19:47;20.90;81.90
20526;DHT22;10421;49.142;9.232;2023-04-21T12:22:16;20.90;81.70
20526;DHT22;10421;49.142;9.232;2023-04-21T12:24:44;21.00;81.10
20526;DHT22;10421;49.142;9.232;2023-04-21T12:27:11;21.10;81.40
20526;DHT22;10421;49.142;9.232;2023-04-21T12:29:39;21.10;81.20
20526;DHT22;10421;49.142;9.232;2023-04-21T12:32:06;21.20;81.60
20526;DHT22;10421;49.142;9.232;2023-04-21T12:34:34;21.30;82.00
20526;DHT22;10421;49.142;9.232;2023-04-21T12:37:01;21.50;81.50
20526;DHT22;10421;49.142;9.232;2023-04-21T12:39:28;21.50;81.10
20526;DHT22;10421;49.142;9.232;2023-04-21T12:41:55;21.60;81.60
20526;DHT22;10421;49.142;9.232;2023-04-21T12:44:22;21.70;81.10
20526;DHT22;10421;49.142;9.232;2023-04-21T12:46:49;21.90;81.00
20526;DHT22;10421;49.142;9.232;2023-04-21T12:49:16;21.90;80.20
20526;DHT22;10421;49.142;9.232;2023-04-21T12:51:45;22.00;81.00
20526;DHT22;10421;49.142;9.232;2023-04-21T12:54:12;22.10;81.20
20526;DHT22;10421;49.142;9.232;2023-04-21T12:56:38;22.20;80.50
20526;DHT22;10421;49.142;9.232;2023-04-21T12:59:06;22.30;80.10
20526;DHT22;10421;49.142;9.232;2023-04-21T13:01:34;22.40;79.30
20526;DHT22;10421;49.142;9.232;2023-04-21T13:04:01;22.50;79.10
20526;DHT22;10421;49.142;9.232;2023-04-21T13:06:28;22.50;79.60
20526;DHT22;10421;49.142;9.232;2023-04-21T13:08:56;22.60;79.80
20526;DHT22;10421;49.142;9.232;2023-04-21T13:11:23;22.60;78.20
20526;DHT22;10421;49.142;9.232;2023-04-21T13:13:50;22.60;78.20
20526;DHT22;10421;49.142;9.232;2023-04-21T13:16:17;22.60;78.90
20526;DHT22;10421;49.142;9.232;2023-04-21T13:18:44;22.70;79.80
20526;DHT22;10421;49.142;9.232;2023-04-21T13:21:11;22.80;78.90
20526;DHT22;10421;49.142;9.232;2023-04-21T13:23:38;22.80;79.20
20526;DHT22;10421;49.142;9.232;2023-04-21T13:26:07;23.00;79.30
20526;DHT22;10421;49.142;9.232;2023-04-21T13:28:34;23.10;79.00
20526;DHT22;10421;49.142;9.232;2023-04-21T13:31:01;23.10;78.10
20526;DHT22;10421;49.142;9.232;2023-04-21T13:33:27;23.30;78.20
20526;DHT22;10421;49.142;9.232;2023-04-21T13:35:54;23.40;77.30
20526;DHT22;10421;49.142;9.232;2023-04-21T13:38:21;23.40;76.50
20526;DHT22;10421;49.142;9.232;2023-04-21T13:40:48;23.40;76.40
20526;DHT22;10421;49.142;9.232;2023-04-21T13:43:16;23.40;76.00
20526;DHT22;10421;49.142;9.232;2023-04-21T13:45:43;23.50;76.90
20526;DHT22;10421;49.142;9.232;2023-04-21T13:48:11;23.70;77.00
20526;DHT22;10421;49.142;9.232;2023-04-21T13:50:38;23.70;76.40
20526;DHT22;10421;49.142;9.232;2023-04-21T13:53:05;23.80;76.40
20526;DHT22;10421;49.142;9.232;2023-04-21T13:55:31;23.90;76.00
20526;DHT22;10421;49.142;9.232;2023-04-21T13:57:58;24.00;75.10
20526;DHT22;10421;49.142;9.232;2023-04-21T14:00:27;24.00;74.50
20526;DHT22;10421;49.142;9.232;2023-04-21T14:02:54;24.10;74.60
20526;DHT22;10421;49.142;9.232;2023-04-21T14:05:21;24.10;73.80
20526;DHT22;10421;49.142;9.232;2023-04-21T14:07:48;24.20;73.90
20526;DHT22;10421;49.142;9.232;2023-04-21T14:10:14;24.30;73.40
20526;DHT22;10421;49.142;9.232;2023-04-21T14:12:41;24.40;73.10
20526;DHT22;10421;49.142;9.232;2023-04-21T14:15:10;24.40;72.50
20526;DHT22;10421;49.142;9.232;2023-04-21T14:17:38;24.40;72.50
20526;DHT22;10421;49.142;9.232;2023-04-21T14:20:06;24.50;72.70
20526;DHT22;10421;49.142;9.232;2023-04-21T14:22:33;24.50;72.20
20526;DHT22;10421;49.142;9.232;2023-04-21T14:25:00;24.60;72.20
20526;DHT22;10421;49.142;9.232;2023-04-21T14:27:27;24.70;72.00
20526;DHT22;10421;49.142;9.232;2023-04-21T14:29:54;24.80;71.10
20526;DHT22;10421;49.142;9.232;2023-04-21T14:32:23;24.80;71.00
20526;DHT22;10421;49.142;9.232;2023-04-21T14:34:52;24.90;70.70
20526;DHT22;10421;49.142;9.232;2023-04-21T14:37:19;24.90;69.90
20526;DHT22;10421;49.142;9.232;2023-04-21T14:39:45;25.00;69.50
20526;DHT22;10421;49.142;9.232;2023-04-21T14:42:12;25.00;69.20
20526;DHT22;10421;49.142;9.232;2023-04-21T14:44:39;25.00;69.40
20526;DHT22;10421;49.142;9.232;2023-04-21T14:47:06;25.00;68.60
20526;DHT22;10421;49.142;9.232;2023-04-21T14:49:32;25.00;68.00
20526;DHT22;10421;49.142;9.232;2023-04-21T14:52:01;25.00;66.80
20526;DHT22;10421;49.142;9.232;2023-04-21T14:54:28;25.00;67.00
20526;DHT22;10421;49.142;9.232;2023-04-21T14:56:55;25.00;67.50
20526;DHT22;10421;49.142;9.232;2023-04-21T14:59:22;25.00;67.80
20526;DHT22;10421;49.142;9.232;2023-04-21T15:01:49;25.00;66.50
20526;DHT22;10421;49.142;9.232;2023-04-21T15:04:15;25.00;66.70
20526;DHT22;10421;49.142;9.232;2023-04-21T15:06:42;25.00;66.70
20526;DHT22;10421;49.142;9.232;2023-04-21T15:09:10;25.00;66.40
20526;DHT22;10421;49.142;9.232;2023-04-21T15:11:38;25.00;65.90
20526;DHT22;10421;49.142;9.232;2023-04-21T15:14:05;24.90;65.40
20526;DHT22;10421;49.142;9.232;2023-04-21T15:16:31;24.80;65.60
20526;DHT22;10421;49.142;9.232;2023-04-21T15:18:58;24.80;65.30
20526;DHT22;10421;49.142;9.232;2023-04-21T15:21:25;24.70;64.80
20526;DHT22;10421;49.142;9.232;2023-04-21T15:23:52;24.70;64.80
20526;DHT22;10421;49.142;9.232;2023-04-21T15:26:20;24.70;63.90
20526;DHT22;10421;49.142;9.232;2023-04-21T15:28:47;24.70;63.50
20526;DHT22;10421;49.142;9.232;2023-04-21T15:31:13;24.70;62.50
20526;DHT22;10421;49.142;9.232;2023-04-21T15:33:40;24.70;62.30
20526;DHT22;10421;49.142;9.232;2023-04-21T15:36:07;24.80;61.90
20526;DHT22;10421;49.142;9.232;2023-04-21T15:38:34;24.70;61.90